createdAt,value
2022-10-19T00:03:07.741Z,12.98
2022-10-19T00:13:11.338Z,13.00
2022-10-19T00:23:15.512Z,12.96
2022-10-19T00:33:22.333Z,13.00
2022-10-19T00:43:30.621Z,13.11
2022-10-19T00:53:35.969Z,13.12
2022-10-19T01:03:40.711Z,13.10
2022-10-19T01:14:26.515Z,13.18
2022-10-19T01:25:16.142Z,13.31
2022-10-19T01:35:37.818Z,13.39
2022-10-19T01:46:07.473Z,13.45
2022-10-19T01:56:14.110Z,13.38
2022-10-19T02:06:18.791Z,13.27
2022-10-19T02:16:34.955Z,13.22
2022-10-19T02:26:40.071Z,13.20
2022-10-19T02:36:44.037Z,13.18
2022-10-19T02:47:12.452Z,13.22
2022-10-19T02:57:20.529Z,13.22
2022-10-19T03:07:24.701Z,13.14
2022-10-19T03:17:28.269Z,13.17
2022-10-19T03:27:32.466Z,13.24
2022-10-19T03:37:36.841Z,13.29
2022-10-19T03:47:40.716Z,13.29
2022-10-19T03:57:44.456Z,13.16
2022-10-19T04:07:48.029Z,13.13
2022-10-19T04:17:51.585Z,13.09
2022-10-19T04:27:55.254Z,13.10
2022-10-19T04:37:59.842Z,13.11
2022-10-19T04:48:03.504Z,13.14
2022-10-19T04:58:06.963Z,13.13
2022-10-19T05:08:11.853Z,12.99
2022-10-19T05:18:15.524Z,12.92
2022-10-19T05:28:19.083Z,12.88
2022-10-19T05:38:22.953Z,12.78
2022-10-19T05:48:28.569Z,12.83
2022-10-19T05:58:33.100Z,12.89
2022-10-19T06:08:38.252Z,12.90
2022-10-19T06:18:43.241Z,12.87
2022-10-19T06:28:48.200Z,12.87
2022-10-19T06:38:53.643Z,13.02
2022-10-19T06:48:59.829Z,13.02
2022-10-19T06:59:04.143Z,12.89
2022-10-19T07:09:07.843Z,12.64
2022-10-19T07:19:12.204Z,12.60
2022-10-19T07:29:16.685Z,12.67
2022-10-19T07:39:21.438Z,12.64
2022-10-19T07:49:25.030Z,12.70
2022-10-19T07:59:28.910Z,13.05
2022-10-19T08:09:52.114Z,13.46
2022-10-19T08:19:57.885Z,13.97
2022-10-19T08:30:04.962Z,13.96
2022-10-19T08:40:19.613Z,13.75
2022-10-19T08:50:32.166Z,13.63
2022-10-19T09:00:46.009Z,13.55
2022-10-19T09:10:52.911Z,13.76
2022-10-19T09:21:06.695Z,13.98
2022-10-19T09:31:18.483Z,14.01
2022-10-19T09:41:25.141Z,13.86
2022-10-19T09:51:51.270Z,13.95
2022-10-19T10:02:14.585Z,14.10
2022-10-19T10:12:18.856Z,13.86
2022-10-19T10:22:52.705Z,13.24
2022-10-19T10:33:08.058Z,13.06
2022-10-19T10:43:23.043Z,13.24
2022-10-19T10:53:40.752Z,13.27
2022-10-19T11:03:59.264Z,13.34
2022-10-19T11:14:21.756Z,13.30
2022-10-19T11:25:08.508Z,12.95
2022-10-19T11:35:34.574Z,12.53
2022-10-19T11:46:01.786Z,12.59
2022-10-19T11:56:25.162Z,12.97
2022-10-19T12:06:55.684Z,13.09
2022-10-19T12:17:06.374Z,13.13
2022-10-19T12:27:17.254Z,12.74
2022-10-19T12:37:48.867Z,12.80
2022-10-19T12:48:08.892Z,13.24
2022-10-19T12:58:25.419Z,13.21
2022-10-19T13:08:33.857Z,13.22
2022-10-19T13:19:00.043Z,13.21
2022-10-19T13:29:04.688Z,13.08
2022-10-19T13:39:14.153Z,13.01
2022-10-19T13:49:47.322Z,12.87
2022-10-19T14:00:03.579Z,12.61
2022-10-19T14:10:22.722Z,12.34
2022-10-19T14:20:39.112Z,12.20
2022-10-19T14:30:43.432Z,12.03
2022-10-19T14:40:47.711Z,11.82
2022-10-19T14:50:57.011Z,11.71
2022-10-19T15:01:00.756Z,11.64
2022-10-19T15:11:06.881Z,11.47
2022-10-19T15:21:16.300Z,11.28
2022-10-19T15:31:24.867Z,11.09
2022-10-19T15:41:41.886Z,10.99
2022-10-19T15:51:47.929Z,10.82
2022-10-19T16:01:55.054Z,10.68
2022-10-19T16:12:00.410Z,10.71
2022-10-19T16:22:04.640Z,10.67
2022-10-19T16:32:10.332Z,10.59
2022-10-19T16:42:14.966Z,10.61
2022-10-19T16:52:20.174Z,10.54
2022-10-19T17:02:24.568Z,10.40
2022-10-19T17:12:28.898Z,10.31
2022-10-19T17:22:34.627Z,10.27
2022-10-19T17:32:42.511Z,10.25
2022-10-19T17:42:48.211Z,10.24
2022-10-19T17:52:53.549Z,10.27
2022-10-19T18:02:59.315Z,10.31
2022-10-19T18:13:04.877Z,10.34
2022-10-19T18:23:10.713Z,10.41
2022-10-19T18:33:18.635Z,10.48
2022-10-19T18:43:24.788Z,10.46
2022-10-19T18:53:31.173Z,10.33
2022-10-19T19:03:38.009Z,10.10
2022-10-19T19:13:47.708Z,9.91
2022-10-19T19:23:54.297Z,9.74
2022-10-19T19:34:02.414Z,9.68
2022-10-19T19:44:08.022Z,9.66
2022-10-19T19:54:13.139Z,9.59
2022-10-19T20:04:20.166Z,9.59
2022-10-19T20:14:25.162Z,9.62
2022-10-19T20:24:29.285Z,9.53
2022-10-19T20:34:36.690Z,9.29
2022-10-19T20:44:40.462Z,9.06
2022-10-19T20:54:44.432Z,8.94
2022-10-19T21:04:49.229Z,8.91
2022-10-19T21:14:52.893Z,8.95
2022-10-19T21:24:56.581Z,9.02
2022-10-19T21:35:00.729Z,9.10
2022-10-19T21:45:25.725Z,9.16
2022-10-19T21:55:30.072Z,9.27
2022-10-19T22:05:34.043Z,9.31
2022-10-19T22:15:38.926Z,9.29
2022-10-19T22:25:42.518Z,9.28
2022-10-19T22:35:55.264Z,9.21
2022-10-19T22:45:58.949Z,8.94
2022-10-19T22:56:03.004Z,8.79
2022-10-19T23:06:12.213Z,8.50
2022-10-19T23:16:16.235Z,8.34
2022-10-19T23:26:21.583Z,8.22
2022-10-19T23:36:28.111Z,8.08
2022-10-19T23:46:31.876Z,7.95
2022-10-19T23:56:35.449Z,7.86
